Time;durP1;ratioP1;P1;durP2;ratioP2;P2;SDS_P1;SDS_P2;PMS_P1;PMS_P2;Temp;Humidity;BMP_temperature;BMP_pressure;BME280_temperature;BME280_humidity;BME280_pressure;Samples;Min_cycle;Max_cycle;Signal;HPM_P1;HPM_P2
2021/07/03 00:02:22;;;;;;;402.30;379.55;;;12.00;99.90;;;;;;8196787;28;20024;-66
2021/07/03 00:06:23;;;;;;;389.77;368.02;;;12.00;99.90;;;;;;8242251;28;20041;-66
2021/07/03 00:10:24;;;;;;;391.33;369.33;;;11.90;99.90;;;;;;8227840;28;20031;-66
2021/07/03 00:14:24;;;;;;;389.17;367.17;;;11.90;99.90;;;;;;8227900;28;20046;-66
2021/07/03 00:18:25;;;;;;;389.65;367.67;;;12.00;99.90;;;;;;8227560;28;20065;-66
2021/07/03 00:22:26;;;;;;;387.38;365.80;;;12.20;99.90;;;;;;8215800;28;20043;-66
2021/07/03 00:26:26;;;;;;;400.10;377.35;;;11.90;99.90;;;;;;8195269;28;20039;-66
2021/07/03 00:30:27;;;;;;;391.10;368.80;;;11.90;99.90;;;;;;8195694;28;20475;-66
2021/07/03 00:34:28;;;;;;;386.35;364.48;;;11.80;99.90;;;;;;8211363;28;20085;-66
2021/07/03 00:38:29;;;;;;;377.95;357.02;;;12.00;99.90;;;;;;8227549;28;20034;-66
2021/07/03 00:42:29;;;;;;;383.13;361.65;;;11.70;99.90;;;;;;8227188;28;20378;-66
2021/07/03 00:46:30;;;;;;;374.25;352.83;;;11.70;99.90;;;;;;8226744;28;20043;-66
2021/07/03 00:50:31;;;;;;;420.63;396.05;;;11.60;99.90;;;;;;8225255;28;20069;-66
2021/07/03 00:54:36;;;;;;;424.58;400.00;;;11.60;99.90;;;;;;8206756;28;20209;-66
2021/07/03 00:58:37;;;;;;;409.42;386.13;;;11.50;99.90;;;;;;8194872;28;20102;-66
2021/07/03 01:02:37;;;;;;;427.15;402.33;;;11.60;99.90;;;;;;8195913;28;20149;-66
2021/07/03 01:06:38;;;;;;;466.45;438.70;;;11.80;99.90;;;;;;8226285;28;20164;-66
2021/07/03 01:10:38;;;;;;;424.70;399.95;;;11.50;99.90;;;;;;8226338;28;20054;-65
2021/07/03 01:14:41;;;;;;;427.70;402.48;;;11.30;99.90;;;;;;8226221;28;20042;-66
2021/07/03 01:18:42;;;;;;;413.52;389.80;;;;;;;;;;8226130;28;20103;-66
2021/07/03 01:22:44;;;;;;;450.00;423.50;;;11.60;99.90;;;;;;8220381;28;20114;-66
2021/07/03 01:26:53;;;;;;;443.75;417.52;;;11.40;99.90;;;;;;8193774;28;20031;-66
2021/07/03 01:30:54;;;;;;;428.30;403.38;;;11.30;99.90;;;;;;8194016;28;20114;-65
2021/07/03 01:34:55;;;;;;;454.48;427.60;;;11.70;99.90;;;;;;8211769;28;20114;-66
2021/07/03 01:38:55;;;;;;;446.90;420.50;;;11.40;99.90;;;;;;8224533;28;20034;-66
2021/07/03 01:42:56;;;;;;;444.08;417.70;;;11.50;99.90;;;;;;8226482;28;20039;-66
2021/07/03 01:46:59;;;;;;;451.40;424.42;;;11.40;99.90;;;;;;8225331;28;20066;-65
2021/07/03 01:51:00;;;;;;;467.20;438.73;;;11.30;99.90;;;;;;8225412;28;20027;-65
2021/07/03 01:55:01;;;;;;;460.05;432.58;;;11.10;99.90;;;;;;8199878;28;20035;-66
2021/07/03 01:59:01;;;;;;;455.30;428.15;;;10.90;99.90;;;;;;8193036;28;20039;-65
2021/07/03 02:03:02;;;;;;;450.27;423.40;;;11.10;99.90;;;;;;8197503;28;20038;-65
2021/07/03 02:07:02;;;;;;;432.98;407.67;;;11.10;99.90;;;;;;8224769;28;20039;-65
2021/07/03 02:11:04;;;;;;;452.35;425.85;;;11.00;99.90;;;;;;8223851;28;20061;-66
2021/07/03 02:15:05;;;;;;;448.55;422.13;;;11.10;99.90;;;;;;8224672;28;20035;-66
2021/07/03 02:19:07;;;;;;;457.88;430.85;;;11.20;99.90;;;;;;8224588;28;20034;-66
2021/07/03 02:23:08;;;;;;;463.10;435.42;;;11.00;99.90;;;;;;8215675;28;20509;-66
2021/07/03 02:27:08;;;;;;;479.38;450.33;;;11.00;99.90;;;;;;8192431;28;20028;-65
2021/07/03 02:31:09;;;;;;;430.80;405.40;;;10.90;99.90;;;;;;8192506;28;20027;-65
2021/07/03 02:35:11;;;;;;;436.27;410.38;;;10.90;99.90;;;;;;8228528;28;20130;-65
2021/07/03 02:39:12;;;;;;;450.05;423.52;;;11.00;99.90;;;;;;8224443;28;20659;-65
2021/07/03 02:43:13;;;;;;;471.88;443.38;;;10.90;99.90;;;;;;8224134;28;20041;-65
2021/07/03 02:47:13;;;;;;;456.45;429.20;;;10.80;99.90;;;;;;8223968;28;20027;-65
2021/07/03 02:51:14;;;;;;;470.38;442.05;;;11.10;99.90;;;;;;8224307;28;20646;-65
2021/07/03 02:55:14;;;;;;;485.95;456.80;;;11.00;99.90;;;;;;8198301;28;20063;-65
2021/07/03 02:59:15;;;;;;;493.70;463.30;;;11.00;99.90;;;;;;8191677;28;20031;-67
2021/07/03 03:03:16;;;;;;;474.17;445.48;;;10.70;99.90;;;;;;8197418;28;20035;-65
2021/07/03 03:07:16;;;;;;;491.25;461.27;;;10.80;99.90;;;;;;8223859;28;20423;-66
2021/07/03 03:11:17;;;;;;;460.30;432.92;;;10.70;99.90;;;;;;8222557;28;20027;-65
2021/07/03 03:15:18;;;;;;;445.17;418.90;;;10.80;99.90;;;;;;8223304;28;20039;-66
2021/07/03 03:19:19;;;;;;;446.40;420.27;;;10.60;99.90;;;;;;8222199;28;20477;-65
2021/07/03 03:23:19;;;;;;;424.40;399.67;;;10.40;99.90;;;;;;8212659;28;20493;-66
2021/07/03 03:27:20;;;;;;;417.83;393.77;;;10.20;99.90;;;;;;8191376;28;20123;-66
2021/07/03 03:31:20;;;;;;;450.60;423.45;;;10.20;99.90;;;;;;8190917;28;20035;-65
2021/07/03 03:35:21;;;;;;;448.25;421.38;;;10.20;99.90;;;;;;8213948;28;20455;-65
2021/07/03 03:39:22;;;;;;;486.25;456.63;;;10.10;99.90;;;;;;8222855;28;20035;-66
2021/07/03 03:43:22;;;;;;;391.77;369.65;;;10.20;99.90;;;;;;8222812;28;20074;-66
2021/07/03 03:47:23;;;;;;;389.42;367.50;;;10.20;99.90;;;;;;8221584;28;20026;-66
2021/07/03 03:51:23;;;;;;;367.30;347.02;;;10.20;99.90;;;;;;8222769;28;20370;-66
2021/07/03 03:55:24;;;;;;;375.35;354.50;;;10.30;99.90;;;;;;8195747;28;20106;-65
2021/07/03 03:59:25;;;;;;;385.30;363.98;;;10.30;99.90;;;;;;8191095;28;20035;-66
2021/07/03 04:03:25;;;;;;;394.15;372.00;;;10.40;99.90;;;;;;8197952;28;20050;-65
2021/07/03 04:07:26;;;;;;;368.33;348.42;;;10.70;99.90;;;;;;8222378;28;20027;-65
2021/07/03 04:11:26;;;;;;;391.13;369.40;;;10.70;99.90;;;;;;8222078;28;20030;-65
2021/07/03 04:15:27;;;;;;;398.55;375.83;;;10.40;99.90;;;;;;8219876;28;20225;-65
2021/07/03 04:19:27;;;;;;;368.80;348.35;;;10.70;99.90;;;;;;8221932;28;20054;-66
2021/07/03 04:23:28;;;;;;;345.00;326.15;;;10.90;99.90;;;;;;8211764;28;20118;-66
2021/07/03 04:27:29;;;;;;;375.58;354.60;;;11.00;99.90;;;;;;8195668;28;20031;-66
2021/07/03 04:31:29;;;;;;;369.60;349.38;;;11.10;99.90;;;;;;8195755;28;20027;-66
2021/07/03 04:35:30;;;;;;;369.95;349.98;;;11.30;99.90;;;;;;8194830;28;20031;-71
2021/07/03 04:39:31;;;;;;;352.60;333.65;;;11.60;99.90;;;;;;8193886;28;20046;-71
2021/07/03 04:43:33;;;;;;;347.00;328.27;;;11.80;99.90;;;;;;8187031;28;20447;-71
2021/07/03 04:47:34;;;;;;;357.48;338.17;;;12.20;99.90;;;;;;8176240;29;20105;-72
2021/07/03 04:51:35;;;;;;;341.13;322.92;;;12.40;99.90;;;;;;8175088;28;20054;-72
2021/07/03 04:55:36;;;;;;;341.52;323.33;;;12.60;99.90;;;;;;8192004;28;20047;-71
2021/07/03 04:59:43;;;;;;;332.85;315.25;;;12.70;99.90;;;;;;8193633;28;20088;-72
2021/07/03 05:03:44;;;;;;;361.83;342.33;;;13.00;99.90;;;;;;8186176;28;20031;-71
2021/07/03 05:07:44;;;;;;;342.33;324.20;;;13.10;99.90;;;;;;8193183;28;20157;-72
2021/07/03 05:11:45;;;;;;;346.08;327.30;;;13.30;99.90;;;;;;8187723;28;20051;-72
2021/07/03 05:15:46;;;;;;;335.73;317.45;;;13.70;99.90;;;;;;8184468;28;20069;-70
2021/07/03 05:19:46;;;;;;;325.98;308.35;;;14.00;99.90;;;;;;8189887;28;20027;-72
2021/07/03 05:23:47;;;;;;;315.35;298.52;;;14.20;99.90;;;;;;8194275;28;20031;-70
2021/07/03 05:27:47;;;;;;;345.65;327.10;;;14.50;99.90;;;;;;8191161;28;20394;-72
2021/07/03 05:31:48;;;;;;;315.25;298.42;;;14.80;99.90;;;;;;8182098;28;20031;-72
2021/07/03 05:35:49;;;;;;;332.85;315.25;;;15.00;99.90;;;;;;8182730;28;20027;-68
2021/07/03 05:39:49;;;;;;;303.35;287.17;;;15.30;99.90;;;;;;8174662;28;20081;-70
2021/07/03 05:43:50;;;;;;;311.83;295.13;;;15.60;99.90;;;;;;8177476;29;20031;-71
2021/07/03 05:47:51;;;;;;;318.15;301.27;;;15.90;99.90;;;;;;8191902;28;20019;-69
2021/07/03 05:51:52;;;;;;;320.80;303.80;;;16.10;99.90;;;;;;8166748;28;20024;-70
2021/07/03 05:55:52;;;;;;;306.20;289.42;;;16.40;99.90;;;;;;8177387;28;20101;-70
2021/07/03 05:59:53;;;;;;;305.33;288.80;;;16.20;99.90;;;;;;8166576;28;20825;-71
2021/07/03 06:03:53;;;;;;;295.48;279.27;;;16.70;99.90;;;;;;8184018;28;20059;-68
2021/07/03 06:07:54;;;;;;;308.42;291.65;;;16.90;99.90;;;;;;8179615;28;20038;-70
2021/07/03 06:11:55;;;;;;;269.02;254.70;;;17.30;99.90;;;;;;8183497;28;20035;-70
2021/07/03 06:15:55;;;;;;;264.58;250.32;;;17.60;99.90;;;;;;8190929;28;20035;-69
2021/07/03 06:19:56;;;;;;;239.32;226.75;;;17.80;99.90;;;;;;8185746;28;20118;-70
2021/07/03 06:23:57;;;;;;;244.77;231.80;;;18.10;99.90;;;;;;8200907;28;20039;-70
2021/07/03 06:27:57;;;;;;;261.60;248.00;;;18.40;99.90;;;;;;8188871;28;20035;-70
2021/07/03 06:31:58;;;;;;;270.60;255.95;;;18.50;99.90;;;;;;8181698;28;20043;-70
2021/07/03 06:35:58;;;;;;;287.70;271.95;;;18.50;99.90;;;;;;8177829;28;20039;-71
2021/07/03 06:39:59;;;;;;;276.88;261.52;;;18.50;99.90;;;;;;8174314;28;20038;-71
2021/07/03 06:44:00;;;;;;;263.48;249.43;;;18.50;99.90;;;;;;8165880;28;20114;-70
2021/07/03 06:48:01;;;;;;;260.67;245.57;;;18.70;99.90;;;;;;8166776;28;20038;-70
2021/07/03 06:52:01;;;;;;;254.40;240.75;;;19.20;99.90;;;;;;8184427;28;20398;-70
2021/07/03 06:56:02;;;;;;;237.90;224.95;;;19.40;99.90;;;;;;8189609;28;20097;-70
2021/07/03 07:00:07;;;;;;;232.82;219.98;;;19.60;99.90;;;;;;8159196;28;20039;-70
2021/07/03 07:04:07;;;;;;;235.20;222.40;;;19.70;99.90;;;;;;8197760;28;20515;-71
2021/07/03 07:08:08;;;;;;;237.48;224.50;;;19.80;99.90;;;;;;8220937;28;20027;-70
2021/07/03 07:12:09;;;;;;;230.43;218.45;;;19.80;99.90;;;;;;8201472;28;20618;-63
2021/07/03 07:16:09;;;;;;;238.65;225.55;;;20.10;99.90;;;;;;8159688;29;20036;-64
2021/07/03 07:20:11;;;;;;;250.32;237.00;;;20.40;99.90;;;;;;8159840;28;20526;-63
2021/07/03 07:24:11;;;;;;;250.27;236.30;;;20.40;99.90;;;;;;8178944;28;20489;-63
2021/07/03 07:28:12;;;;;;;235.10;222.27;;;20.20;99.90;;;;;;8189095;28;20034;-64
2021/07/03 07:32:12;;;;;;;233.27;220.85;;;20.30;99.90;;;;;;8189558;29;20113;-64
2021/07/03 07:36:13;;;;;;;233.23;220.65;;;20.60;99.90;;;;;;8220702;28;20488;-63
2021/07/03 07:40:14;;;;;;;232.00;219.07;;;20.90;99.90;;;;;;8221866;28;20075;-64
2021/07/03 07:44:15;;;;;;;229.77;217.43;;;21.00;99.90;;;;;;8222085;28;20515;-64
2021/07/03 07:48:15;;;;;;;216.15;204.55;;;21.00;99.90;;;;;;8222394;28;20027;-63
2021/07/03 07:52:16;;;;;;;204.68;193.65;;;21.30;99.90;;;;;;8220553;28;20023;-63
2021/07/03 07:56:18;;;;;;;211.55;200.23;;;21.50;99.90;;;;;;8190820;28;20023;-63
2021/07/03 08:00:22;;;;;;;223.32;211.43;;;21.60;99.90;;;;;;8194665;28;20092;-64
2021/07/03 08:04:22;;;;;;;210.52;199.40;;;21.40;99.90;;;;;;8211359;28;20497;-64
2021/07/03 08:08:23;;;;;;;215.43;203.73;;;21.70;99.90;;;;;;8227646;28;20042;-64
2021/07/03 08:12:24;;;;;;;212.63;201.27;;;21.90;99.90;;;;;;8226260;28;20019;-64
2021/07/03 08:16:25;;;;;;;219.90;208.20;;;21.90;99.90;;;;;;8227567;28;20037;-63
2021/07/03 08:20:26;;;;;;;257.17;243.02;;;21.90;99.90;;;;;;8212562;28;20429;-64
2021/07/03 08:24:27;;;;;;;201.50;190.73;;;21.90;99.90;;;;;;8183271;28;20034;-64
2021/07/03 08:28:27;;;;;;;210.50;198.88;;;22.00;99.90;;;;;;8162133;28;20119;-63
2021/07/03 08:32:28;;;;;;;211.35;199.95;;;22.10;99.90;;;;;;8163605;28;20510;-63
2021/07/03 08:36:29;;;;;;;204.82;193.65;;;22.20;99.90;;;;;;8195187;28;20101;-64
2021/07/03 08:40:31;;;;;;;214.25;202.85;;;22.30;99.90;;;;;;8193013;29;20055;-63
2021/07/03 08:44:31;;;;;;;225.95;213.65;;;22.20;99.90;;;;;;8163526;29;20039;-63
2021/07/03 08:48:32;;;;;;;215.43;203.90;;;22.40;99.90;;;;;;8163244;28;20522;-63
2021/07/03 08:52:33;;;;;;;215.27;203.73;;;22.50;99.90;;;;;;8166823;29;20034;-62
2021/07/03 08:56:33;;;;;;;221.52;209.68;;;22.70;99.90;;;;;;8194493;28;20184;-64
2021/07/03 09:00:46;;;;;;;216.88;205.20;;;22.60;99.90;;;;;;8191373;28;20031;-64
2021/07/03 09:04:46;;;;;;;214.85;203.45;;;22.60;99.90;;;;;;8188807;28;20073;-63
2021/07/03 09:08:53;;;;;;;213.80;202.48;;;22.70;99.90;;;;;;8191974;28;20023;-64
2021/07/03 09:12:54;;;;;;;220.27;208.82;;;22.80;99.90;;;;;;8192014;28;20028;-63
2021/07/03 09:16:59;;;;;;;217.25;205.65;;;22.90;99.90;;;;;;8193373;28;20098;-64
2021/07/03 09:21:08;;;;;;;207.50;196.40;;;22.90;99.90;;;;;;8188120;28;20051;-63
2021/07/03 09:25:23;;;;;;;207.32;196.27;;;23.20;99.90;;;;;;8192805;28;20119;-64
2021/07/03 09:29:23;;;;;;;202.73;192.18;;;23.40;99.90;;;;;;8191112;28;20106;-63
2021/07/03 09:33:25;;;;;;;208.38;196.93;;;23.60;99.90;;;;;;8200001;28;20027;-64
2021/07/03 09:37:26;;;;;;;203.88;192.77;;;23.70;99.90;;;;;;8204685;28;20388;-64
2021/07/03 09:41:32;;;;;;;201.50;190.63;;;23.90;99.90;;;;;;8168872;28;20028;-64
2021/07/03 09:45:34;;;;;;;196.15;185.60;;;24.30;99.90;;;;;;8190058;28;20077;-64
2021/07/03 09:49:34;;;;;;;188.07;177.93;;;24.50;99.90;;;;;;8192300;28;20081;-63
2021/07/03 09:53:36;;;;;;;194.30;183.75;;;24.60;99.90;;;;;;8182938;28;20089;-63
2021/07/03 09:57:38;;;;;;;194.95;184.43;;;24.50;99.90;;;;;;8165571;28;20107;-64
2021/07/03 10:01:40;;;;;;;198.30;187.43;;;24.70;99.90;;;;;;8181747;28;20093;-63
2021/07/03 10:05:49;;;;;;;203.18;190.93;;;24.80;99.90;;;;;;8194449;28;20494;-65
2021/07/03 10:10:03;;;;;;;201.05;189.70;;;25.00;99.90;;;;;;8181839;28;20114;-67
2021/07/03 10:14:05;;;;;;;198.90;188.20;;;25.00;99.10;;;;;;8193202;28;20116;-67
2021/07/03 10:18:09;;;;;;;197.32;186.63;;;25.10;99.90;;;;;;8192685;28;20031;-67
2021/07/03 10:22:11;;;;;;;191.57;181.20;;;25.30;99.90;;;;;;8192546;28;20033;-67
2021/07/03 10:26:12;;;;;;;199.40;188.52;;;25.30;98.10;;;;;;8192478;28;20031;-67
2021/07/03 10:30:25;;;;;;;191.27;180.70;;;25.00;95.80;;;;;;8188533;28;21487;-67
2021/07/03 10:34:30;;;;;;;193.07;182.65;;;25.10;97.10;;;;;;8191419;28;20401;-66
2021/07/03 10:38:41;;;;;;;200.90;189.77;;;25.40;95.80;;;;;;8181606;28;20652;-67
2021/07/03 10:42:41;;;;;;;;;;;25.40;96.20;;;;;;8180788;28;20038;-67
2021/07/03 10:46:44;;;;;;;202.55;191.38;;;25.40;93.60;;;;;;8188507;28;19921;-67
2021/07/03 10:50:46;;;;;;;200.13;189.25;;;24.90;93.70;;;;;;8191646;28;20485;-66
2021/07/03 10:54:48;;;;;;;195.40;184.57;;;25.00;95.00;;;;;;8192258;28;20485;-66
2021/07/03 10:58:48;;;;;;;198.13;187.18;;;25.60;92.30;;;;;;8172721;28;20517;-66
2021/07/03 11:02:49;;;;;;;192.85;182.30;;;25.60;92.30;;;;;;8177623;28;20038;-66
2021/07/03 11:06:55;;;;;;;186.10;176.13;;;26.00;91.00;;;;;;8207911;28;20027;-67
2021/07/03 11:11:07;;;;;;;201.00;189.48;;;26.20;91.30;;;;;;8175341;28;20024;-68
2021/07/03 11:15:08;;;;;;;197.68;186.95;;;26.00;92.30;;;;;;8183667;28;20485;-67
2021/07/03 11:19:08;;;;;;;198.43;187.65;;;25.90;91.40;;;;;;8195795;28;20036;-66
2021/07/03 11:23:10;;;;;;;184.82;174.88;;;26.10;93.20;;;;;;8169357;28;20050;-67
2021/07/03 11:27:12;;;;;;;176.65;166.98;;;27.10;90.70;;;;;;8176520;28;20035;-66
2021/07/03 11:31:13;;;;;;;190.25;179.77;;;27.80;82.20;;;;;;8158897;28;20379;-66
2021/07/03 11:35:13;;;;;;;184.68;174.55;;;27.50;79.90;;;;;;8199211;28;20027;-66
2021/07/03 11:39:14;;;;;;;189.50;179.10;;;27.40;78.10;;;;;;8186284;28;20036;-67
2021/07/03 11:43:14;;;;;;;175.27;165.98;;;28.80;73.40;;;;;;8187014;28;20058;-66
2021/07/03 11:47:15;;;;;;;169.75;160.50;;;30.00;63.80;;;;;;8158230;28;20031;-66
2021/07/03 11:51:15;;;;;;;203.80;192.60;;;32.30;60.90;;;;;;8156580;28;20032;-67
2021/07/03 11:55:21;;;;;;;257.65;243.52;;;32.90;56.20;;;;;;8199294;28;20038;-67
2021/07/03 11:59:21;;;;;;;276.73;260.63;;;32.30;53.80;;;;;;8214756;28;20046;-67
2021/07/03 12:03:30;;;;;;;265.27;249.55;;;33.00;61.40;;;;;;8193422;28;20086;-68
2021/07/03 12:07:31;;;;;;;247.27;232.35;;;33.80;59.50;;;;;;8208800;28;20077;-67
2021/07/03 12:11:35;;;;;;;234.48;220.43;;;33.60;50.80;;;;;;8182209;28;20036;-67
2021/07/03 12:15:35;;;;;;;212.30;199.60;;;32.70;51.90;;;;;;8235385;28;20029;-66
2021/07/03 12:19:41;;;;;;;140.82;132.73;;;31.00;54.50;;;;;;8210178;28;20717;-66
2021/07/03 12:23:45;;;;;;;21.50;20.17;;;31.40;54.90;;;;;;8187260;28;20149;-66
2021/07/03 12:27:55;;;;;;;21.80;20.50;;;30.40;60.90;;;;;;8183416;28;20027;-67
2021/07/03 12:32:07;;;;;;;15.48;14.48;;;30.10;56.00;;;;;;8187869;28;20038;-66
2021/07/03 12:36:20;;;;;;;23.52;21.88;;;29.90;54.30;;;;;;8180743;28;20040;-66
2021/07/03 12:40:21;;;;;;;25.65;24.13;;;29.60;58.20;;;;;;8168842;29;20039;-67
2021/07/03 12:44:52;;;;;;;23.15;21.70;;;30.30;56.80;;;;;;8159449;29;20039;-66
2021/07/03 12:48:53;;;;;;;30.55;28.73;;;30.60;53.40;;;;;;8187630;28;20035;-66
2021/07/03 12:53:06;;;;;;;31.25;29.50;;;32.60;55.30;;;;;;8195535;28;20028;-68
2021/07/03 12:57:07;;;;;;;31.23;28.23;;;36.40;45.50;;;;;;8187041;28;20065;-67
2021/07/03 13:01:08;;;;;;;16.02;15.05;;;38.80;44.10;;;;;;8264560;28;20029;-66
2021/07/03 13:05:10;;;;;;;12.82;11.93;;;37.90;42.20;;;;;;8210753;28;20551;-67
2021/07/03 13:09:11;;;;;;;14.98;13.98;;;36.30;43.80;;;;;;8175478;28;20055;-66
2021/07/03 13:13:11;;;;;;;13.45;12.40;;;36.10;41.30;;;;;;8201819;28;20097;-67
2021/07/03 13:17:12;;;;;;;15.68;14.77;;;35.00;42.90;;;;;;8172470;28;20035;-68
2021/07/03 13:21:13;;;;;;;16.60;15.50;;;35.00;47.20;;;;;;8189717;28;20039;-67
2021/07/03 13:25:13;;;;;;;18.77;17.65;;;33.80;49.00;;;;;;8190457;28;20468;-67
2021/07/03 13:29:14;;;;;;;17.80;16.60;;;35.00;47.50;;;;;;8196735;28;20398;-67
2021/07/03 13:33:15;;;;;;;16.90;15.85;;;31.50;51.90;;;;;;8194297;28;20481;-68
2021/07/03 13:37:16;;;;;;;13.85;12.95;;;33.30;53.70;;;;;;8217359;28;20024;-67
2021/07/03 13:41:16;;;;;;;11.30;10.50;;;33.10;51.30;;;;;;8186082;29;20069;-67
2021/07/03 13:45:17;;;;;;;19.45;18.35;;;33.30;49.50;;;;;;8188019;28;20035;-68
2021/07/03 13:49:18;;;;;;;23.10;21.70;;;36.90;41.90;;;;;;8186840;28;20493;-68
2021/07/03 13:53:19;;;;;;;41.72;39.42;;;39.00;39.40;;;;;;8191407;28;20085;-68
2021/07/03 13:57:20;;;;;;;34.90;33.03;;;40.50;37.80;;;;;;8162749;28;20119;-68
2021/07/03 14:01:21;;;;;;;27.30;25.67;;;39.70;35.20;;;;;;8184765;28;20031;-67
2021/07/03 14:05:22;;;;;;;23.60;22.15;;;35.50;41.20;;;;;;8202719;28;20028;-67
2021/07/03 14:09:23;;;;;;;20.83;19.50;;;32.90;45.10;;;;;;8178926;28;20482;-67
2021/07/03 14:13:25;;;;;;;17.35;16.27;;;31.80;49.50;;;;;;8178077;28;20046;-67
2021/07/03 14:17:43;;;;;;;16.77;7.65;;;30.40;49.70;;;;;;8115421;29;20117;-67
2021/07/03 14:21:47;;;;;;;11.05;6.03;;;29.90;54.60;;;;;;8161838;28;20486;-68
2021/07/03 14:25:48;;;;;;;10.32;9.52;;;30.00;56.80;;;;;;8179435;28;20043;-68
2021/07/03 14:29:48;;;;;;;9.07;8.40;;;32.70;49.00;;;;;;8161050;28;20106;-68
2021/07/03 14:33:49;;;;;;;15.88;14.77;;;33.20;49.10;;;;;;8178903;28;20050;-68
2021/07/03 14:37:50;;;;;;;13.77;12.80;;;35.50;49.20;;;;;;8192787;28;20094;-68
2021/07/03 14:41:52;;;;;;;11.05;10.20;;;35.90;42.50;;;;;;8182894;28;20489;-68
2021/07/03 14:45:52;;;;;;;11.32;10.43;;;32.90;47.80;;;;;;8187216;28;20027;-68
2021/07/03 14:49:53;;;;;;;14.20;13.30;;;32.80;51.20;;;;;;8192717;28;20100;-68
2021/07/03 14:53:53;;;;;;;23.48;22.10;;;34.90;49.20;;;;;;8191911;28;20024;-69
2021/07/03 14:57:54;;;;;;;24.65;23.17;;;37.00;45.30;;;;;;8188804;28;20038;-66
2021/07/03 15:01:55;;;;;;;21.75;20.52;;;38.40;43.10;;;;;;8191258;28;20031;-66
2021/07/03 15:05:55;;;;;;;23.42;21.90;;;38.10;41.90;;;;;;8186045;28;20047;-67
2021/07/03 15:09:56;;;;;;;22.60;21.27;;;37.90;41.50;;;;;;8170107;28;20032;-67
2021/07/03 15:13:56;;;;;;;27.35;25.75;;;38.50;40.60;;;;;;8162636;28;20054;-65
2021/07/03 15:17:57;;;;;;;29.42;27.80;;;38.40;42.10;;;;;;8178240;29;20535;-66
2021/07/03 15:21:57;;;;;;;20.00;18.80;;;39.70;39.50;;;;;;8162086;29;20107;-65
2021/07/03 15:25:58;;;;;;;16.52;15.32;;;38.70;39.40;;;;;;8186595;28;20551;-65
2021/07/03 15:29:58;;;;;;;11.27;10.48;;;36.10;43.00;;;;;;8189067;28;20721;-65
2021/07/03 15:34:00;;;;;;;9.88;9.23;;;34.30;47.20;;;;;;8178074;28;20039;-64
2021/07/03 15:38:01;;;;;;;9.48;8.88;;;33.00;49.30;;;;;;8183235;29;20122;-64
2021/07/03 15:42:01;;;;;;;8.25;7.65;;;31.90;51.60;;;;;;8191163;28;20085;-64
2021/07/03 15:46:02;;;;;;;9.80;6.65;;;31.40;51.00;;;;;;8171707;28;20042;-64
2021/07/03 15:50:06;;;;;;;25.40;8.80;;;30.60;55.40;;;;;;8164348;28;20031;-65
2021/07/03 15:54:07;;;;;;;44.35;13.85;;;30.40;54.50;;;;;;8190133;28;20455;-67
2021/07/03 15:58:08;;;;;;;56.47;19.67;;;29.50;55.30;;;;;;8166884;28;20062;-67
2021/07/03 16:02:08;;;;;;;20.27;7.65;;;29.10;60.80;;;;;;8182132;28;20107;-67
2021/07/03 16:06:09;;;;;;;23.52;8.18;;;28.60;62.70;;;;;;8185111;28;20066;-67
2021/07/03 16:10:11;;;;;;;41.33;13.90;;;28.30;57.60;;;;;;8189934;28;20043;-67
2021/07/03 16:14:12;;;;;;;24.67;9.48;;;28.10;59.70;;;;;;8200160;23;20022;-65
2021/07/03 16:18:12;;;;;;;24.95;7.32;;;28.00;60.40;;;;;;8357367;28;20450;-65
2021/07/03 16:22:13;;;;;;;18.50;6.40;;;27.60;63.10;;;;;;8362547;28;20025;-65
2021/07/03 16:26:14;;;;;;;34.75;11.55;;;27.30;60.00;;;;;;8342640;28;20045;-66
2021/07/03 16:30:16;;;;;;;54.25;16.63;;;26.90;67.00;;;;;;8349038;28;20396;-65
2021/07/03 16:34:17;;;;;;;12.95;5.72;;;26.50;65.10;;;;;;8329348;28;20026;-66
2021/07/03 16:38:18;;;;;;;85.40;24.63;;;26.40;73.30;;;;;;8333050;28;20087;-64
2021/07/03 16:42:18;;;;;;;70.35;22.48;;;26.10;77.40;;;;;;8306627;28;20064;-65
2021/07/03 16:46:19;;;;;;;76.70;24.58;;;25.90;75.20;;;;;;8356819;28;20475;-65
2021/07/03 16:50:20;;;;;;;80.65;24.38;;;25.60;69.00;;;;;;8323110;28;20500;-65
2021/07/03 16:54:20;;;;;;;65.05;24.48;;;25.30;83.30;;;;;;8312682;28;20292;-65
2021/07/03 16:58:21;;;;;;;71.13;22.45;;;25.10;87.50;;;;;;8320641;28;20567;-64
2021/07/03 17:02:22;;;;;;;;;;;24.80;90.50;;;;;;8309505;28;20021;-65
2021/07/03 17:06:22;;;;;;;;;;;24.60;81.30;;;;;;8301756;28;19967;-65
2021/07/03 17:10:23;;;;;;;;;;;24.40;89.00;;;;;;8317335;28;19913;-65
2021/07/03 17:14:23;;;;;;;;;;;24.20;90.60;;;;;;8321561;28;19909;-65
2021/07/03 17:18:24;;;;;;;;;;;24.10;86.20;;;;;;8329177;28;20415;-65
2021/07/03 17:22:24;;;;;;;;;;;24.00;88.80;;;;;;8329723;28;20366;-65
2021/07/03 17:26:25;;;;;;;;;;;23.80;90.20;;;;;;8326863;28;19920;-65
2021/07/03 17:30:25;;;;;;;;;;;23.40;90.90;;;;;;8324199;28;19913;-65
2021/07/03 17:34:26;;;;;;;;;;;22.70;93.80;;;;;;8336128;28;19905;-65
2021/07/03 17:38:26;;;;;;;;;;;22.30;96.80;;;;;;8327671;28;19909;-65
2021/07/03 17:42:27;;;;;;;;;;;22.00;99.90;;;;;;8328761;28;19912;-65
2021/07/03 17:46:27;;;;;;;;;;;21.60;99.90;;;;;;8320726;28;20004;-67
2021/07/03 17:50:28;;;;;;;;;;;21.20;99.90;;;;;;8309718;28;19916;-67
2021/07/03 17:54:29;;;;;;;;;;;21.10;99.90;;;;;;8320847;28;19990;-67
2021/07/03 17:58:29;;;;;;;;;;;20.70;99.90;;;;;;8327769;28;19908;-67
2021/07/03 18:02:30;;;;;;;;;;;20.20;99.90;;;;;;8330799;28;19908;-67
2021/07/03 18:06:30;;;;;;;;;;;20.00;99.90;;;;;;8352231;28;19986;-67
2021/07/03 18:10:31;;;;;;;;;;;19.70;99.90;;;;;;8349933;28;19916;-67
2021/07/03 18:14:31;;;;;;;;;;;19.60;99.90;;;;;;8327619;28;19913;-67
2021/07/03 18:18:32;;;;;;;;;;;19.60;99.90;;;;;;8327489;28;19905;-67
2021/07/03 18:22:33;;;;;;;;;;;19.60;99.90;;;;;;8327176;28;19916;-67
2021/07/03 18:26:33;;;;;;;;;;;19.60;99.90;;;;;;8302094;28;19913;-67
2021/07/03 18:30:34;;;;;;;;;;;19.30;99.90;;;;;;8315797;28;19966;-67
2021/07/03 18:34:34;;;;;;;;;;;19.10;99.90;;;;;;8311869;28;20395;-67
2021/07/03 18:38:35;;;;;;;;;;;18.90;99.90;;;;;;8293343;28;19924;-67
2021/07/03 18:42:35;;;;;;;;;;;18.60;99.90;;;;;;8304033;28;20371;-66
2021/07/03 18:46:36;;;;;;;;;;;18.50;99.90;;;;;;8335273;28;19912;-67
2021/07/03 18:50:37;;;;;;;;;;;18.30;99.90;;;;;;8339037;28;19963;-68
2021/07/03 18:54:37;;;;;;;;;;;18.20;99.90;;;;;;8338563;28;19969;-68
2021/07/03 18:58:38;;;;;;;;;;;18.00;99.90;;;;;;8325690;28;19959;-68
2021/07/03 19:02:39;;;;;;;;;;;17.90;99.90;;;;;;8327891;28;19944;-68
2021/07/03 19:06:39;;;;;;;;;;;17.80;99.90;;;;;;8312050;28;19999;-68
2021/07/03 19:10:40;;;;;;;;;;;17.70;99.90;;;;;;8332917;28;19913;-68
2021/07/03 19:14:40;;;;;;;;;;;17.60;99.90;;;;;;8332972;28;19924;-68
2021/07/03 19:18:41;;;;;;;;;;;17.60;99.90;;;;;;8338393;28;19909;-68
2021/07/03 19:22:42;;;;;;;;;;;17.60;99.90;;;;;;8318647;28;20337;-69
2021/07/03 19:26:42;;;;;;;;;;;17.60;99.90;;;;;;8322218;28;19974;-69
2021/07/03 19:30:43;;;;;;;;;;;17.50;99.90;;;;;;8337228;28;19919;-69
2021/07/03 19:34:43;;;;;;;;;;;17.60;99.90;;;;;;8335580;28;20383;-68
2021/07/03 19:38:44;;;;;;;;;;;17.70;99.90;;;;;;8338480;28;20375;-68
2021/07/03 19:42:44;;;;;;;;;;;17.90;99.90;;;;;;8337999;28;19979;-68
2021/07/03 19:46:45;;;;;;;;;;;17.80;99.90;;;;;;8337176;28;20005;-68
2021/07/03 19:50:46;;;;;;;;;;;17.70;99.90;;;;;;8333557;28;19913;-69
2021/07/03 19:54:46;;;;;;;55.08;19.90;;;17.80;99.90;;;;;;8342428;28;20422;-68
2021/07/03 19:58:47;;;;;;;;;;;17.70;99.90;;;;;;8347708;28;20036;-69
2021/07/03 20:02:47;;;;;;;;;;;17.70;99.90;;;;;;8361549;28;19961;-69
2021/07/03 20:06:48;;;;;;;;;;;17.70;99.90;;;;;;8314985;28;19916;-69
2021/07/03 20:10:48;;;;;;;;;;;17.70;99.90;;;;;;8325903;28;19911;-68
2021/07/03 20:14:49;;;;;;;;;;;17.60;99.90;;;;;;8327712;28;20679;-69
2021/07/03 20:18:50;;;;;;;;;;;17.70;99.90;;;;;;8327195;28;19930;-68
2021/07/03 20:22:51;;;;;;;;;;;17.70;99.90;;;;;;8310330;28;19982;-69
2021/07/03 20:26:52;;;;;;;;;;;17.60;99.90;;;;;;8327688;28;19952;-69
2021/07/03 20:30:53;;;;;;;;;;;17.60;99.90;;;;;;8328196;28;20122;-68
2021/07/03 20:34:55;;;;;;;;;;;17.60;99.90;;;;;;8340372;28;20734;-68